sensor_id;sensor_type;location;lat;lon;timestamp;P1;durP1;ratioP1;P2;durP2;ratioP2
70073;SDS011;57445;51.058;3.698;2022-09-09T00:01:24;5.65;;;2.05;;
70073;SDS011;57445;51.058;3.698;2022-09-09T00:04:10;7.80;;;2.10;;
70073;SDS011;57445;51.058;3.698;2022-09-09T00:06:49;5.75;;;2.10;;
70073;SDS011;57445;51.058;3.698;2022-09-09T00:09:30;7.32;;;2.15;;
70073;SDS011;57445;51.058;3.698;2022-09-09T00:12:05;6.65;;;1.85;;
70073;SDS011;57445;51.058;3.698;2022-09-09T00:14:40;5.15;;;2.08;;
70073;SDS011;57445;51.058;3.698;2022-09-09T00:17:28;5.28;;;1.70;;
70073;SDS011;57445;51.058;3.698;2022-09-09T00:20:02;3.85;;;1.67;;
70073;SDS011;57445;51.058;3.698;2022-09-09T00:22:39;4.38;;;1.80;;
70073;SDS011;57445;51.058;3.698;2022-09-09T00:25:15;9.50;;;2.45;;
70073;SDS011;57445;51.058;3.698;2022-09-09T00:30:18;4.97;;;1.70;;
70073;SDS011;57445;51.058;3.698;2022-09-09T00:32:48;8.50;;;2.25;;
70073;SDS011;57445;51.058;3.698;2022-09-09T00:35:18;5.55;;;2.08;;
70073;SDS011;57445;51.058;3.698;2022-09-09T00:37:55;7.07;;;2.00;;
70073;SDS011;57445;51.058;3.698;2022-09-09T00:40:33;6.97;;;2.10;;
70073;SDS011;57445;51.058;3.698;2022-09-09T00:46:11;5.72;;;2.05;;
70073;SDS011;57445;51.058;3.698;2022-09-09T00:49:03;7.13;;;2.03;;
70073;SDS011;57445;51.058;3.698;2022-09-09T00:51:43;7.40;;;2.00;;
70073;SDS011;57445;51.058;3.698;2022-09-09T00:54:33;7.28;;;2.00;;
70073;SDS011;57445;51.058;3.698;2022-09-09T00:57:16;6.70;;;2.10;;
70073;SDS011;57445;51.058;3.698;2022-09-09T00:59:56;4.90;;;1.80;;
70073;SDS011;57445;51.058;3.698;2022-09-09T01:05:16;6.70;;;2.30;;
70073;SDS011;57445;51.058;3.698;2022-09-09T01:07:49;4.75;;;1.90;;
70073;SDS011;57445;51.058;3.698;2022-09-09T01:10:24;4.40;;;1.80;;
70073;SDS011;57445;51.058;3.698;2022-09-09T01:12:59;5.70;;;1.80;;
70073;SDS011;57445;51.058;3.698;2022-09-09T01:15:36;7.63;;;1.80;;
70073;SDS011;57445;51.058;3.698;2022-09-09T01:18:05;8.80;;;2.00;;
70073;SDS011;57445;51.058;3.698;2022-09-09T01:20:43;5.30;;;1.80;;
70073;SDS011;57445;51.058;3.698;2022-09-09T01:23:28;4.50;;;1.70;;
70073;SDS011;57445;51.058;3.698;2022-09-09T01:28:55;5.20;;;1.85;;
70073;SDS011;57445;51.058;3.698;2022-09-09T01:31:23;8.05;;;1.95;;
70073;SDS011;57445;51.058;3.698;2022-09-09T01:34:00;5.18;;;1.70;;
70073;SDS011;57445;51.058;3.698;2022-09-09T01:36:32;7.72;;;1.88;;
70073;SDS011;57445;51.058;3.698;2022-09-09T01:39:05;7.90;;;1.83;;
70073;SDS011;57445;51.058;3.698;2022-09-09T01:41:38;5.78;;;1.80;;
70073;SDS011;57445;51.058;3.698;2022-09-09T01:44:06;6.13;;;1.80;;
70073;SDS011;57445;51.058;3.698;2022-09-09T01:46:35;7.38;;;1.70;;
70073;SDS011;57445;51.058;3.698;2022-09-09T01:49:03;6.40;;;1.80;;
70073;SDS011;57445;51.058;3.698;2022-09-09T01:51:38;3.72;;;1.40;;
70073;SDS011;57445;51.058;3.698;2022-09-09T01:54:11;5.15;;;1.63;;
70073;SDS011;57445;51.058;3.698;2022-09-09T01:56:42;7.70;;;1.55;;
70073;SDS011;57445;51.058;3.698;2022-09-09T01:59:30;6.95;;;1.60;;
70073;SDS011;57445;51.058;3.698;2022-09-09T02:04:45;4.53;;;1.50;;
70073;SDS011;57445;51.058;3.698;2022-09-09T02:07:19;6.43;;;1.77;;
70073;SDS011;57445;51.058;3.698;2022-09-09T02:10:03;4.25;;;1.50;;
70073;SDS011;57445;51.058;3.698;2022-09-09T02:12:37;6.05;;;1.85;;
70073;SDS011;57445;51.058;3.698;2022-09-09T02:15:10;7.28;;;2.30;;
70073;SDS011;57445;51.058;3.698;2022-09-09T02:17:49;4.78;;;1.77;;
70073;SDS011;57445;51.058;3.698;2022-09-09T02:20:23;7.00;;;2.10;;
70073;SDS011;57445;51.058;3.698;2022-09-09T02:22:52;8.10;;;1.85;;
70073;SDS011;57445;51.058;3.698;2022-09-09T02:25:28;5.43;;;1.83;;
70073;SDS011;57445;51.058;3.698;2022-09-09T02:27:57;4.95;;;1.98;;
70073;SDS011;57445;51.058;3.698;2022-09-09T02:30:30;7.93;;;1.85;;
70073;SDS011;57445;51.058;3.698;2022-09-09T02:33:04;5.15;;;1.90;;
70073;SDS011;57445;51.058;3.698;2022-09-09T02:35:40;6.47;;;1.60;;
70073;SDS011;57445;51.058;3.698;2022-09-09T02:38:15;9.57;;;2.80;;
70073;SDS011;57445;51.058;3.698;2022-09-09T02:40:48;7.10;;;2.28;;
70073;SDS011;57445;51.058;3.698;2022-09-09T02:43:22;5.93;;;2.00;;
70073;SDS011;57445;51.058;3.698;2022-09-09T02:45:51;8.18;;;1.90;;
70073;SDS011;57445;51.058;3.698;2022-09-09T02:48:28;8.65;;;2.20;;
70073;SDS011;57445;51.058;3.698;2022-09-09T02:51:07;4.88;;;1.90;;
70073;SDS011;57445;51.058;3.698;2022-09-09T02:53:39;11.07;;;2.65;;
70073;SDS011;57445;51.058;3.698;2022-09-09T02:56:13;7.93;;;2.05;;
70073;SDS011;57445;51.058;3.698;2022-09-09T02:58:45;7.07;;;2.20;;
70073;SDS011;57445;51.058;3.698;2022-09-09T03:01:13;8.85;;;2.35;;
70073;SDS011;57445;51.058;3.698;2022-09-09T03:03:47;8.52;;;2.10;;
70073;SDS011;57445;51.058;3.698;2022-09-09T03:06:14;9.10;;;2.25;;
70073;SDS011;57445;51.058;3.698;2022-09-09T03:08:46;10.25;;;2.60;;
70073;SDS011;57445;51.058;3.698;2022-09-09T03:11:14;8.73;;;2.15;;
70073;SDS011;57445;51.058;3.698;2022-09-09T03:13:42;7.97;;;2.45;;
70073;SDS011;57445;51.058;3.698;2022-09-09T03:16:11;11.73;;;2.50;;
70073;SDS011;57445;51.058;3.698;2022-09-09T03:18:40;6.68;;;2.13;;
70073;SDS011;57445;51.058;3.698;2022-09-09T03:21:08;8.93;;;2.22;;
70073;SDS011;57445;51.058;3.698;2022-09-09T03:23:41;11.98;;;3.17;;
70073;SDS011;57445;51.058;3.698;2022-09-09T03:26:08;9.80;;;2.50;;
70073;SDS011;57445;51.058;3.698;2022-09-09T03:28:36;9.85;;;2.33;;
70073;SDS011;57445;51.058;3.698;2022-09-09T03:31:04;8.32;;;2.00;;
70073;SDS011;57445;51.058;3.698;2022-09-09T03:33:41;9.13;;;2.70;;
70073;SDS011;57445;51.058;3.698;2022-09-09T03:36:14;10.93;;;2.35;;
70073;SDS011;57445;51.058;3.698;2022-09-09T03:38:42;7.72;;;2.55;;
70073;SDS011;57445;51.058;3.698;2022-09-09T03:41:14;9.73;;;2.47;;
70073;SDS011;57445;51.058;3.698;2022-09-09T03:43:41;9.80;;;2.17;;
70073;SDS011;57445;51.058;3.698;2022-09-09T03:46:14;16.15;;;2.53;;
70073;SDS011;57445;51.058;3.698;2022-09-09T03:48:42;7.45;;;2.20;;
70073;SDS011;57445;51.058;3.698;2022-09-09T03:51:15;11.48;;;2.80;;
70073;SDS011;57445;51.058;3.698;2022-09-09T03:53:43;8.45;;;2.53;;
70073;SDS011;57445;51.058;3.698;2022-09-09T03:56:11;9.95;;;2.45;;
70073;SDS011;57445;51.058;3.698;2022-09-09T03:58:39;9.80;;;2.65;;
70073;SDS011;57445;51.058;3.698;2022-09-09T04:01:11;10.43;;;2.65;;
70073;SDS011;57445;51.058;3.698;2022-09-09T04:03:40;9.88;;;2.63;;
70073;SDS011;57445;51.058;3.698;2022-09-09T04:06:09;12.40;;;2.58;;
70073;SDS011;57445;51.058;3.698;2022-09-09T04:08:43;10.90;;;2.65;;
70073;SDS011;57445;51.058;3.698;2022-09-09T04:11:11;10.68;;;2.90;;
70073;SDS011;57445;51.058;3.698;2022-09-09T04:13:43;10.43;;;2.35;;
70073;SDS011;57445;51.058;3.698;2022-09-09T04:16:11;13.05;;;2.90;;
70073;SDS011;57445;51.058;3.698;2022-09-09T04:18:43;12.77;;;3.22;;
70073;SDS011;57445;51.058;3.698;2022-09-09T04:21:12;9.52;;;2.45;;
70073;SDS011;57445;51.058;3.698;2022-09-09T04:23:41;8.15;;;2.38;;
70073;SDS011;57445;51.058;3.698;2022-09-09T04:26:13;11.20;;;2.72;;
70073;SDS011;57445;51.058;3.698;2022-09-09T04:28:46;9.80;;;2.50;;
70073;SDS011;57445;51.058;3.698;2022-09-09T04:31:15;11.25;;;2.40;;
70073;SDS011;57445;51.058;3.698;2022-09-09T04:33:46;11.45;;;2.75;;
70073;SDS011;57445;51.058;3.698;2022-09-09T04:36:19;9.70;;;2.30;;
70073;SDS011;57445;51.058;3.698;2022-09-09T04:38:51;11.38;;;2.67;;
70073;SDS011;57445;51.058;3.698;2022-09-09T04:41:19;10.45;;;2.42;;
70073;SDS011;57445;51.058;3.698;2022-09-09T04:43:51;11.85;;;2.55;;
70073;SDS011;57445;51.058;3.698;2022-09-09T04:46:19;8.07;;;2.35;;
70073;SDS011;57445;51.058;3.698;2022-09-09T04:48:48;11.27;;;2.90;;
70073;SDS011;57445;51.058;3.698;2022-09-09T04:51:22;11.00;;;2.65;;
70073;SDS011;57445;51.058;3.698;2022-09-09T04:53:50;10.93;;;2.72;;
70073;SDS011;57445;51.058;3.698;2022-09-09T04:56:19;11.02;;;3.10;;
70073;SDS011;57445;51.058;3.698;2022-09-09T04:58:47;10.73;;;2.55;;
70073;SDS011;57445;51.058;3.698;2022-09-09T05:01:20;11.68;;;2.88;;
70073;SDS011;57445;51.058;3.698;2022-09-09T05:03:54;12.30;;;3.03;;
70073;SDS011;57445;51.058;3.698;2022-09-09T05:06:23;9.85;;;2.70;;
70073;SDS011;57445;51.058;3.698;2022-09-09T05:08:55;8.88;;;2.72;;
70073;SDS011;57445;51.058;3.698;2022-09-09T05:11:24;10.85;;;3.05;;
70073;SDS011;57445;51.058;3.698;2022-09-09T05:13:53;9.32;;;2.58;;
70073;SDS011;57445;51.058;3.698;2022-09-09T05:16:25;9.55;;;2.92;;
70073;SDS011;57445;51.058;3.698;2022-09-09T05:18:53;11.13;;;3.40;;
70073;SDS011;57445;51.058;3.698;2022-09-09T05:21:21;12.05;;;3.20;;
70073;SDS011;57445;51.058;3.698;2022-09-09T05:23:54;9.68;;;2.92;;
70073;SDS011;57445;51.058;3.698;2022-09-09T05:26:22;10.32;;;2.90;;
70073;SDS011;57445;51.058;3.698;2022-09-09T05:28:54;9.48;;;2.92;;
70073;SDS011;57445;51.058;3.698;2022-09-09T05:31:22;14.38;;;3.50;;
70073;SDS011;57445;51.058;3.698;2022-09-09T05:33:58;10.00;;;3.08;;
70073;SDS011;57445;51.058;3.698;2022-09-09T05:36:31;10.15;;;2.50;;
70073;SDS011;57445;51.058;3.698;2022-09-09T05:39:04;8.55;;;2.88;;
70073;SDS011;57445;51.058;3.698;2022-09-09T05:41:31;14.32;;;2.83;;
70073;SDS011;57445;51.058;3.698;2022-09-09T05:43:59;9.00;;;3.05;;
70073;SDS011;57445;51.058;3.698;2022-09-09T05:46:27;11.10;;;2.95;;
70073;SDS011;57445;51.058;3.698;2022-09-09T05:48:54;12.13;;;2.97;;
70073;SDS011;57445;51.058;3.698;2022-09-09T05:51:25;11.48;;;3.22;;
70073;SDS011;57445;51.058;3.698;2022-09-09T05:54:01;14.27;;;3.05;;
70073;SDS011;57445;51.058;3.698;2022-09-09T05:56:34;10.43;;;2.95;;
70073;SDS011;57445;51.058;3.698;2022-09-09T05:59:01;12.85;;;3.30;;
70073;SDS011;57445;51.058;3.698;2022-09-09T06:01:30;11.73;;;3.03;;
70073;SDS011;57445;51.058;3.698;2022-09-09T06:03:59;14.05;;;3.15;;
70073;SDS011;57445;51.058;3.698;2022-09-09T06:06:30;11.25;;;2.75;;
70073;SDS011;57445;51.058;3.698;2022-09-09T06:09:08;9.45;;;2.65;;
70073;SDS011;57445;51.058;3.698;2022-09-09T06:11:37;8.82;;;2.88;;
70073;SDS011;57445;51.058;3.698;2022-09-09T06:14:10;11.35;;;3.25;;
70073;SDS011;57445;51.058;3.698;2022-09-09T06:16:38;10.52;;;2.92;;
70073;SDS011;57445;51.058;3.698;2022-09-09T06:19:09;13.68;;;2.80;;
70073;SDS011;57445;51.058;3.698;2022-09-09T06:21:42;9.93;;;3.03;;
70073;SDS011;57445;51.058;3.698;2022-09-09T06:24:11;10.70;;;2.80;;
70073;SDS011;57445;51.058;3.698;2022-09-09T06:26:42;12.02;;;2.83;;
70073;SDS011;57445;51.058;3.698;2022-09-09T06:29:15;10.95;;;3.25;;
70073;SDS011;57445;51.058;3.698;2022-09-09T06:31:47;11.18;;;2.85;;
70073;SDS011;57445;51.058;3.698;2022-09-09T06:34:15;12.48;;;3.03;;
70073;SDS011;57445;51.058;3.698;2022-09-09T06:36:47;10.38;;;3.10;;
70073;SDS011;57445;51.058;3.698;2022-09-09T06:39:16;9.18;;;2.80;;
70073;SDS011;57445;51.058;3.698;2022-09-09T06:41:44;11.60;;;3.35;;
70073;SDS011;57445;51.058;3.698;2022-09-09T06:44:13;8.73;;;3.08;;
70073;SDS011;57445;51.058;3.698;2022-09-09T06:46:45;8.80;;;2.60;;
70073;SDS011;57445;51.058;3.698;2022-09-09T06:49:13;11.65;;;2.90;;
70073;SDS011;57445;51.058;3.698;2022-09-09T06:51:41;11.65;;;3.08;;
70073;SDS011;57445;51.058;3.698;2022-09-09T06:54:10;11.73;;;2.85;;
70073;SDS011;57445;51.058;3.698;2022-09-09T06:56:44;10.32;;;2.50;;
70073;SDS011;57445;51.058;3.698;2022-09-09T06:59:12;11.15;;;3.28;;
70073;SDS011;57445;51.058;3.698;2022-09-09T07:01:40;11.02;;;3.15;;
70073;SDS011;57445;51.058;3.698;2022-09-09T07:04:09;10.30;;;2.70;;
70073;SDS011;57445;51.058;3.698;2022-09-09T07:06:39;9.82;;;2.67;;
70073;SDS011;57445;51.058;3.698;2022-09-09T07:09:14;10.82;;;2.67;;
70073;SDS011;57445;51.058;3.698;2022-09-09T07:11:44;11.93;;;2.85;;
70073;SDS011;57445;51.058;3.698;2022-09-09T07:14:14;12.25;;;2.65;;
70073;SDS011;57445;51.058;3.698;2022-09-09T07:16:42;8.88;;;2.58;;
70073;SDS011;57445;51.058;3.698;2022-09-09T07:19:17;11.18;;;2.83;;
70073;SDS011;57445;51.058;3.698;2022-09-09T07:21:44;9.85;;;2.50;;
70073;SDS011;57445;51.058;3.698;2022-09-09T07:24:17;10.85;;;2.80;;
70073;SDS011;57445;51.058;3.698;2022-09-09T07:26:46;8.05;;;2.22;;
70073;SDS011;57445;51.058;3.698;2022-09-09T07:29:18;7.47;;;2.08;;
70073;SDS011;57445;51.058;3.698;2022-09-09T07:31:50;8.15;;;2.33;;
70073;SDS011;57445;51.058;3.698;2022-09-09T07:34:22;6.97;;;2.45;;
70073;SDS011;57445;51.058;3.698;2022-09-09T07:36:55;9.35;;;2.45;;
70073;SDS011;57445;51.058;3.698;2022-09-09T07:39:27;9.35;;;3.35;;
70073;SDS011;57445;51.058;3.698;2022-09-09T07:41:57;10.20;;;2.25;;
70073;SDS011;57445;51.058;3.698;2022-09-09T07:44:25;8.57;;;2.30;;
70073;SDS011;57445;51.058;3.698;2022-09-09T07:46:53;7.22;;;2.30;;
70073;SDS011;57445;51.058;3.698;2022-09-09T07:49:25;8.98;;;2.60;;
70073;SDS011;57445;51.058;3.698;2022-09-09T07:51:53;10.05;;;2.15;;
70073;SDS011;57445;51.058;3.698;2022-09-09T07:54:25;6.93;;;2.10;;
70073;SDS011;57445;51.058;3.698;2022-09-09T07:56:53;9.35;;;2.45;;
70073;SDS011;57445;51.058;3.698;2022-09-09T07:59:26;6.75;;;2.30;;
70073;SDS011;57445;51.058;3.698;2022-09-09T08:01:56;9.43;;;2.30;;
70073;SDS011;57445;51.058;3.698;2022-09-09T08:04:28;10.93;;;2.85;;
70073;SDS011;57445;51.058;3.698;2022-09-09T08:07:00;6.57;;;1.98;;
70073;SDS011;57445;51.058;3.698;2022-09-09T08:09:34;7.60;;;2.33;;
70073;SDS011;57445;51.058;3.698;2022-09-09T08:12:06;6.97;;;2.22;;
70073;SDS011;57445;51.058;3.698;2022-09-09T08:14:36;10.13;;;2.30;;
70073;SDS011;57445;51.058;3.698;2022-09-09T08:17:08;7.95;;;2.40;;
70073;SDS011;57445;51.058;3.698;2022-09-09T08:19:40;10.13;;;2.63;;
70073;SDS011;57445;51.058;3.698;2022-09-09T08:22:08;9.23;;;2.30;;
70073;SDS011;57445;51.058;3.698;2022-09-09T08:24:35;7.78;;;2.95;;
70073;SDS011;57445;51.058;3.698;2022-09-09T08:27:03;8.73;;;2.42;;
70073;SDS011;57445;51.058;3.698;2022-09-09T08:29:31;8.05;;;2.30;;
70073;SDS011;57445;51.058;3.698;2022-09-09T08:32:04;6.10;;;2.25;;
70073;SDS011;57445;51.058;3.698;2022-09-09T08:34:36;8.32;;;2.20;;
70073;SDS011;57445;51.058;3.698;2022-09-09T08:37:08;5.22;;;2.05;;
70073;SDS011;57445;51.058;3.698;2022-09-09T08:39:36;7.70;;;2.38;;
70073;SDS011;57445;51.058;3.698;2022-09-09T08:42:21;8.85;;;2.28;;
70073;SDS011;57445;51.058;3.698;2022-09-09T08:47:47;5.05;;;1.77;;
70073;SDS011;57445;51.058;3.698;2022-09-09T08:50:35;5.10;;;1.90;;
70073;SDS011;57445;51.058;3.698;2022-09-09T08:53:10;7.47;;;2.40;;
70073;SDS011;57445;51.058;3.698;2022-09-09T08:55:48;6.50;;;2.10;;
70073;SDS011;57445;51.058;3.698;2022-09-09T08:58:22;6.30;;;1.95;;
70073;SDS011;57445;51.058;3.698;2022-09-09T09:01:02;8.85;;;2.28;;
70073;SDS011;57445;51.058;3.698;2022-09-09T09:03:50;7.82;;;2.28;;
70073;SDS011;57445;51.058;3.698;2022-09-09T09:06:26;11.57;;;2.20;;
70073;SDS011;57445;51.058;3.698;2022-09-09T09:09:05;6.15;;;1.88;;
70073;SDS011;57445;51.058;3.698;2022-09-09T09:11:39;8.63;;;2.47;;
70073;SDS011;57445;51.058;3.698;2022-09-09T09:14:16;5.85;;;1.95;;
70073;SDS011;57445;51.058;3.698;2022-09-09T09:16:50;8.43;;;2.30;;
70073;SDS011;57445;51.058;3.698;2022-09-09T09:19:27;6.40;;;1.90;;
70073;SDS011;57445;51.058;3.698;2022-09-09T09:22:02;4.38;;;1.55;;
70073;SDS011;57445;51.058;3.698;2022-09-09T09:24:42;6.13;;;1.90;;
70073;SDS011;57445;51.058;3.698;2022-09-09T09:27:21;6.82;;;1.98;;
70073;SDS011;57445;51.058;3.698;2022-09-09T09:30:10;6.07;;;2.17;;
70073;SDS011;57445;51.058;3.698;2022-09-09T09:32:43;5.22;;;1.67;;
70073;SDS011;57445;51.058;3.698;2022-09-09T09:35:16;8.02;;;2.10;;
70073;SDS011;57445;51.058;3.698;2022-09-09T09:37:44;4.88;;;1.60;;
70073;SDS011;57445;51.058;3.698;2022-09-09T09:40:13;5.32;;;1.67;;
70073;SDS011;57445;51.058;3.698;2022-09-09T09:42:51;6.60;;;1.98;;
70073;SDS011;57445;51.058;3.698;2022-09-09T09:45:25;5.40;;;1.70;;
70073;SDS011;57445;51.058;3.698;2022-09-09T09:47:57;5.15;;;1.50;;
70073;SDS011;57445;51.058;3.698;2022-09-09T09:50:29;6.93;;;1.98;;
70073;SDS011;57445;51.058;3.698;2022-09-09T09:53:03;8.10;;;2.17;;
70073;SDS011;57445;51.058;3.698;2022-09-09T09:55:44;8.05;;;2.15;;
70073;SDS011;57445;51.058;3.698;2022-09-09T09:58:17;7.40;;;2.03;;
70073;SDS011;57445;51.058;3.698;2022-09-09T10:00:49;8.45;;;2.00;;
70073;SDS011;57445;51.058;3.698;2022-09-09T10:03:24;7.53;;;2.10;;
70073;SDS011;57445;51.058;3.698;2022-09-09T10:05:59;8.38;;;2.05;;
70073;SDS011;57445;51.058;3.698;2022-09-09T10:08:27;6.45;;;1.90;;
70073;SDS011;57445;51.058;3.698;2022-09-09T10:11:04;5.15;;;1.70;;
70073;SDS011;57445;51.058;3.698;2022-09-09T10:13:51;6.47;;;1.70;;
70073;SDS011;57445;51.058;3.698;2022-09-09T10:16:33;5.43;;;2.03;;
70073;SDS011;57445;51.058;3.698;2022-09-09T10:19:13;4.75;;;1.92;;
70073;SDS011;57445;51.058;3.698;2022-09-09T10:21:54;5.97;;;1.70;;
70073;SDS011;57445;51.058;3.698;2022-09-09T10:27:31;3.22;;;1.50;;
70073;SDS011;57445;51.058;3.698;2022-09-09T10:30:12;4.78;;;1.70;;
70073;SDS011;57445;51.058;3.698;2022-09-09T10:32:48;5.18;;;1.75;;
70073;SDS011;57445;51.058;3.698;2022-09-09T10:35:30;3.90;;;1.45;;
70073;SDS011;57445;51.058;3.698;2022-09-09T10:38:15;5.88;;;1.35;;
70073;SDS011;57445;51.058;3.698;2022-09-09T10:41:03;6.72;;;2.00;;
70073;SDS011;57445;51.058;3.698;2022-09-09T10:44:05;4.60;;;1.35;;
70073;SDS011;57445;51.058;3.698;2022-09-09T10:46:50;6.10;;;1.80;;
70073;SDS011;57445;51.058;3.698;2022-09-09T10:49:37;4.15;;;1.48;;
70073;SDS011;57445;51.058;3.698;2022-09-09T10:52:24;3.88;;;1.52;;
70073;SDS011;57445;51.058;3.698;2022-09-09T10:55:09;3.60;;;1.38;;
70073;SDS011;57445;51.058;3.698;2022-09-09T10:57:41;5.15;;;1.50;;
70073;SDS011;57445;51.058;3.698;2022-09-09T11:00:16;6.72;;;1.58;;
70073;SDS011;57445;51.058;3.698;2022-09-09T11:02:47;4.15;;;1.33;;
70073;SDS011;57445;51.058;3.698;2022-09-09T11:05:24;6.22;;;1.58;;
70073;SDS011;57445;51.058;3.698;2022-09-09T11:07:57;5.70;;;1.80;;
70073;SDS011;57445;51.058;3.698;2022-09-09T11:10:36;3.88;;;1.48;;
70073;SDS011;57445;51.058;3.698;2022-09-09T11:13:09;5.07;;;1.50;;
70073;SDS011;57445;51.058;3.698;2022-09-09T11:15:44;4.13;;;1.45;;
70073;SDS011;57445;51.058;3.698;2022-09-09T11:18:21;5.47;;;1.50;;
70073;SDS011;57445;51.058;3.698;2022-09-09T11:20:51;4.90;;;1.35;;
70073;SDS011;57445;51.058;3.698;2022-09-09T11:23:29;4.45;;;1.45;;
70073;SDS011;57445;51.058;3.698;2022-09-09T11:26:12;5.03;;;1.50;;
70073;SDS011;57445;51.058;3.698;2022-09-09T11:28:52;4.65;;;1.48;;
70073;SDS011;57445;51.058;3.698;2022-09-09T11:31:44;5.88;;;1.48;;
70073;SDS011;57445;51.058;3.698;2022-09-09T11:34:20;4.72;;;1.42;;
70073;SDS011;57445;51.058;3.698;2022-09-09T11:40:00;4.32;;;1.30;;
70073;SDS011;57445;51.058;3.698;2022-09-09T11:43:05;4.30;;;1.33;;
70073;SDS011;57445;51.058;3.698;2022-09-09T11:45:38;3.83;;;1.45;;
70073;SDS011;57445;51.058;3.698;2022-09-09T11:48:22;3.55;;;1.23;;
70073;SDS011;57445;51.058;3.698;2022-09-09T11:50:57;6.55;;;1.20;;
70073;SDS011;57445;51.058;3.698;2022-09-09T11:53:26;4.45;;;1.40;;
70073;SDS011;57445;51.058;3.698;2022-09-09T11:56:01;4.63;;;1.38;;
70073;SDS011;57445;51.058;3.698;2022-09-09T11:58:40;4.50;;;1.30;;
70073;SDS011;57445;51.058;3.698;2022-09-09T12:01:15;4.10;;;1.30;;
70073;SDS011;57445;51.058;3.698;2022-09-09T12:03:55;3.00;;;1.20;;
70073;SDS011;57445;51.058;3.698;2022-09-09T12:06:42;4.25;;;1.27;;
70073;SDS011;57445;51.058;3.698;2022-09-09T12:09:22;5.55;;;1.45;;
70073;SDS011;57445;51.058;3.698;2022-09-09T12:12:04;2.53;;;1.20;;
70073;SDS011;57445;51.058;3.698;2022-09-09T12:14:36;3.55;;;1.38;;
70073;SDS011;57445;51.058;3.698;2022-09-09T12:17:18;7.00;;;1.65;;
70073;SDS011;57445;51.058;3.698;2022-09-09T12:19:47;5.72;;;1.70;;
70073;SDS011;57445;51.058;3.698;2022-09-09T12:22:31;4.63;;;1.33;;
70073;SDS011;57445;51.058;3.698;2022-09-09T12:25:07;6.05;;;1.50;;
70073;SDS011;57445;51.058;3.698;2022-09-09T12:27:44;5.38;;;1.65;;
70073;SDS011;57445;51.058;3.698;2022-09-09T12:30:24;4.85;;;1.45;;
70073;SDS011;57445;51.058;3.698;2022-09-09T12:33:01;5.50;;;1.50;;
70073;SDS011;57445;51.058;3.698;2022-09-09T12:35:34;4.15;;;1.45;;
70073;SDS011;57445;51.058;3.698;2022-09-09T12:38:04;4.63;;;1.40;;
70073;SDS011;57445;51.058;3.698;2022-09-09T12:43:18;4.82;;;1.40;;
70073;SDS011;57445;51.058;3.698;2022-09-09T12:45:54;5.50;;;1.40;;
70073;SDS011;57445;51.058;3.698;2022-09-09T12:48:30;3.58;;;1.23;;
70073;SDS011;57445;51.058;3.698;2022-09-09T12:51:07;4.60;;;1.50;;
70073;SDS011;57445;51.058;3.698;2022-09-09T12:53:49;5.75;;;1.52;;
70073;SDS011;57445;51.058;3.698;2022-09-09T12:56:18;3.88;;;1.48;;
70073;SDS011;57445;51.058;3.698;2022-09-09T12:58:52;3.72;;;1.30;;
70073;SDS011;57445;51.058;3.698;2022-09-09T13:01:24;4.70;;;1.60;;
70073;SDS011;57445;51.058;3.698;2022-09-09T13:03:52;3.00;;;1.20;;
70073;SDS011;57445;51.058;3.698;2022-09-09T13:06:26;3.15;;;1.30;;
70073;SDS011;57445;51.058;3.698;2022-09-09T13:08:59;5.85;;;1.60;;
70073;SDS011;57445;51.058;3.698;2022-09-09T13:11:28;4.63;;;1.35;;
70073;SDS011;57445;51.058;3.698;2022-09-09T13:14:01;5.50;;;1.80;;
70073;SDS011;57445;51.058;3.698;2022-09-09T13:16:32;3.60;;;1.50;;
70073;SDS011;57445;51.058;3.698;2022-09-09T13:19:07;5.18;;;2.00;;
70073;SDS011;57445;51.058;3.698;2022-09-09T13:21:37;3.78;;;1.40;;
70073;SDS011;57445;51.058;3.698;2022-09-09T13:24:06;5.03;;;1.40;;
70073;SDS011;57445;51.058;3.698;2022-09-09T13:26:54;5.38;;;1.40;;
70073;SDS011;57445;51.058;3.698;2022-09-09T13:29:23;4.18;;;1.35;;
70073;SDS011;57445;51.058;3.698;2022-09-09T13:32:04;4.13;;;1.73;;
70073;SDS011;57445;51.058;3.698;2022-09-09T13:34:38;4.03;;;1.35;;
70073;SDS011;57445;51.058;3.698;2022-09-09T13:37:21;4.18;;;1.40;;
70073;SDS011;57445;51.058;3.698;2022-09-09T13:39:51;6.18;;;1.52;;
70073;SDS011;57445;51.058;3.698;2022-09-09T13:42:24;4.32;;;1.40;;
70073;SDS011;57445;51.058;3.698;2022-09-09T13:44:58;4.72;;;1.60;;
70073;SDS011;57445;51.058;3.698;2022-09-09T13:47:30;4.53;;;1.60;;
70073;SDS011;57445;51.058;3.698;2022-09-09T13:50:09;4.15;;;1.40;;
70073;SDS011;57445;51.058;3.698;2022-09-09T13:52:53;3.50;;;1.40;;
70073;SDS011;57445;51.058;3.698;2022-09-09T13:55:24;3.13;;;1.23;;
70073;SDS011;57445;51.058;3.698;2022-09-09T13:57:58;4.13;;;1.40;;
70073;SDS011;57445;51.058;3.698;2022-09-09T14:00:28;4.40;;;1.48;;
70073;SDS011;57445;51.058;3.698;2022-09-09T14:02:58;3.78;;;1.48;;
70073;SDS011;57445;51.058;3.698;2022-09-09T14:05:32;4.50;;;1.58;;
70073;SDS011;57445;51.058;3.698;2022-09-09T14:08:00;3.67;;;1.10;;
70073;SDS011;57445;51.058;3.698;2022-09-09T14:10:30;4.80;;;1.15;;
70073;SDS011;57445;51.058;3.698;2022-09-09T14:13:06;5.43;;;1.60;;
70073;SDS011;57445;51.058;3.698;2022-09-09T14:15:38;3.80;;;1.50;;
70073;SDS011;57445;51.058;3.698;2022-09-09T14:18:09;3.45;;;1.25;;
70073;SDS011;57445;51.058;3.698;2022-09-09T14:20:44;4.38;;;1.10;;
70073;SDS011;57445;51.058;3.698;2022-09-09T14:23:11;4.13;;;1.30;;
70073;SDS011;57445;51.058;3.698;2022-09-09T14:25:41;3.13;;;1.40;;
70073;SDS011;57445;51.058;3.698;2022-09-09T14:28:14;4.50;;;1.30;;
70073;SDS011;57445;51.058;3.698;2022-09-09T14:30:46;5.03;;;1.60;;
70073;SDS011;57445;51.058;3.698;2022-09-09T14:33:15;3.95;;;1.30;;
70073;SDS011;57445;51.058;3.698;2022-09-09T14:35:43;5.60;;;1.50;;
70073;SDS011;57445;51.058;3.698;2022-09-09T14:38:11;7.55;;;1.60;;
70073;SDS011;57445;51.058;3.698;2022-09-09T14:40:39;3.03;;;1.40;;
70073;SDS011;57445;51.058;3.698;2022-09-09T14:43:12;6.13;;;1.40;;
70073;SDS011;57445;51.058;3.698;2022-09-09T14:45:44;3.65;;;1.50;;
70073;SDS011;57445;51.058;3.698;2022-09-09T14:48:13;2.60;;;1.23;;
70073;SDS011;57445;51.058;3.698;2022-09-09T14:50:42;7.00;;;1.30;;
70073;SDS011;57445;51.058;3.698;2022-09-09T14:53:16;2.88;;;1.10;;
70073;SDS011;57445;51.058;3.698;2022-09-09T14:55:43;4.90;;;1.33;;
70073;SDS011;57445;51.058;3.698;2022-09-09T14:58:12;3.75;;;1.30;;
70073;SDS011;57445;51.058;3.698;2022-09-09T15:00:44;3.78;;;1.30;;
70073;SDS011;57445;51.058;3.698;2022-09-09T15:03:18;6.68;;;1.80;;
70073;SDS011;57445;51.058;3.698;2022-09-09T15:05:50;4.05;;;1.40;;
70073;SDS011;57445;51.058;3.698;2022-09-09T15:08:18;4.03;;;1.42;;
70073;SDS011;57445;51.058;3.698;2022-09-09T15:10:45;4.03;;;1.55;;
70073;SDS011;57445;51.058;3.698;2022-09-09T15:13:14;5.15;;;1.70;;
70073;SDS011;57445;51.058;3.698;2022-09-09T15:15:47;3.33;;;1.42;;
70073;SDS011;57445;51.058;3.698;2022-09-09T15:18:15;4.32;;;1.60;;
70073;SDS011;57445;51.058;3.698;2022-09-09T15:20:44;3.55;;;1.42;;
70073;SDS011;57445;51.058;3.698;2022-09-09T15:23:16;4.55;;;1.52;;
70073;SDS011;57445;51.058;3.698;2022-09-09T15:25:51;6.45;;;1.70;;
70073;SDS011;57445;51.058;3.698;2022-09-09T15:28:19;3.70;;;1.52;;
70073;SDS011;57445;51.058;3.698;2022-09-09T15:30:47;4.50;;;1.50;;
70073;SDS011;57445;51.058;3.698;2022-09-09T15:33:15;4.32;;;1.48;;
70073;SDS011;57445;51.058;3.698;2022-09-09T15:35:44;4.15;;;1.50;;
70073;SDS011;57445;51.058;3.698;2022-09-09T15:38:12;5.90;;;1.60;;
70073;SDS011;57445;51.058;3.698;2022-09-09T15:40:45;3.55;;;1.70;;
70073;SDS011;57445;51.058;3.698;2022-09-09T15:43:25;3.42;;;1.42;;
70073;SDS011;57445;51.058;3.698;2022-09-09T15:45:59;4.88;;;1.42;;
70073;SDS011;57445;51.058;3.698;2022-09-09T15:48:46;3.45;;;1.45;;